createdAt,value
2023-01-08T00:01:16.198Z,84.31
2023-01-08T00:03:43.258Z,84.38
2023-01-08T00:06:16.302Z,84.31
2023-01-08T00:08:43.156Z,84.39
2023-01-08T00:11:11.030Z,84.14
2023-01-08T00:13:37.972Z,84.27
2023-01-08T00:16:10.593Z,84.13
2023-01-08T00:18:37.646Z,84.35
2023-01-08T00:21:05.129Z,84.25
2023-01-08T00:23:32.667Z,84.44
2023-01-08T00:26:04.015Z,84.15
2023-01-08T00:28:31.532Z,84.17
2023-01-08T00:30:58.801Z,84.09
2023-01-08T00:33:25.625Z,84.05
2023-01-08T00:35:55.144Z,83.97
2023-01-08T00:38:26.219Z,83.85
2023-01-08T00:40:52.955Z,83.97
2023-01-08T00:43:19.742Z,83.77
2023-01-08T00:45:46.516Z,83.46
2023-01-08T00:48:13.253Z,83.48
2023-01-08T00:50:39.945Z,83.39
2023-01-08T00:53:06.727Z,83.49
2023-01-08T00:55:33.443Z,83.24
2023-01-08T00:58:00.172Z,83.33
2023-01-08T01:00:26.974Z,83.17
2023-01-08T01:02:53.788Z,83.17
2023-01-08T01:05:21.002Z,83.49
2023-01-08T01:07:47.917Z,83.28
2023-01-08T01:10:16.545Z,83.34
2023-01-08T01:12:44.280Z,83.24
2023-01-08T01:15:14.285Z,83.26
2023-01-08T01:17:43.358Z,83.20
2023-01-08T01:20:13.351Z,83.21
2023-01-08T01:22:40.159Z,83.14
2023-01-08T01:25:08.179Z,83.28
2023-01-08T01:27:35.331Z,83.14
2023-01-08T01:30:02.900Z,83.14
2023-01-08T01:32:29.766Z,83.20
2023-01-08T01:34:56.408Z,83.16
2023-01-08T01:37:23.251Z,83.25
2023-01-08T01:39:49.988Z,83.20
2023-01-08T01:42:37.257Z,83.34
2023-01-08T01:45:25.676Z,83.15
2023-01-08T01:48:02.553Z,83.44
2023-01-08T01:50:51.694Z,83.22
2023-01-08T01:53:32.118Z,83.28
2023-01-08T01:55:59.621Z,83.24
2023-01-08T01:58:28.807Z,83.19
2023-01-08T02:00:57.981Z,83.32
2023-01-08T02:03:27.803Z,83.19
2023-01-08T02:06:20.761Z,83.54
2023-01-08T02:09:06.248Z,83.50
2023-01-08T02:12:18.830Z,83.41
2023-01-08T02:15:04.836Z,83.53
2023-01-08T02:17:46.603Z,83.25
2023-01-08T02:20:23.278Z,83.11
2023-01-08T02:23:20.480Z,83.23
2023-01-08T02:26:08.214Z,83.09
2023-01-08T02:28:41.291Z,83.31
2023-01-08T02:31:09.979Z,83.11
2023-01-08T02:33:36.813Z,83.04
2023-01-08T02:36:24.672Z,83.07
2023-01-08T02:39:03.593Z,83.26
2023-01-08T02:41:53.601Z,83.13
2023-01-08T02:44:48.902Z,83.03
2023-01-08T02:47:39.519Z,82.88
2023-01-08T02:50:24.439Z,82.79
2023-01-08T02:53:14.382Z,82.96
2023-01-08T02:55:45.163Z,82.96
2023-01-08T02:58:13.202Z,82.75
2023-01-08T03:00:42.729Z,82.77
2023-01-08T03:03:14.117Z,82.59
2023-01-08T03:05:43.687Z,82.73
2023-01-08T03:08:12.427Z,82.69
2023-01-08T03:10:41.908Z,82.92
2023-01-08T03:13:15.628Z,82.94
2023-01-08T03:15:53.921Z,82.81
2023-01-08T03:18:26.853Z,82.79
2023-01-08T03:20:54.160Z,82.61
2023-01-08T03:23:23.023Z,82.40
2023-01-08T03:25:49.919Z,82.55
2023-01-08T03:28:25.506Z,82.52
2023-01-08T03:30:53.579Z,82.62
2023-01-08T03:33:24.310Z,82.44
2023-01-08T03:35:54.001Z,82.17
2023-01-08T03:38:35.812Z,81.80
2023-01-08T03:41:10.708Z,81.64
2023-01-08T03:43:38.562Z,81.35
2023-01-08T03:46:14.119Z,80.96
2023-01-08T03:48:41.420Z,81.02
2023-01-08T03:51:09.721Z,80.67
2023-01-08T03:53:37.125Z,80.61
2023-01-08T03:56:03.962Z,80.49
2023-01-08T03:58:30.651Z,80.18
2023-01-08T04:00:57.453Z,80.04
2023-01-08T04:03:24.821Z,80.30
2023-01-08T04:05:51.542Z,80.21
2023-01-08T04:08:18.244Z,79.87
2023-01-08T04:10:45.101Z,80.01
2023-01-08T04:13:11.846Z,79.98
2023-01-08T04:15:38.533Z,79.97
2023-01-08T04:18:05.377Z,80.09
2023-01-08T04:20:32.117Z,80.04
2023-01-08T04:22:58.851Z,80.04
2023-01-08T04:25:25.569Z,80.13
2023-01-08T04:27:52.251Z,80.05
2023-01-08T04:30:19.015Z,79.85
2023-01-08T04:32:45.771Z,80.01
2023-01-08T04:35:12.520Z,79.95
2023-01-08T04:37:39.257Z,79.89
2023-01-08T04:40:06.613Z,79.76
2023-01-08T04:42:33.336Z,79.96
2023-01-08T04:45:00.093Z,79.73
2023-01-08T04:47:26.805Z,79.45
2023-01-08T04:49:53.530Z,79.81
2023-01-08T04:52:20.215Z,79.55
2023-01-08T04:54:46.888Z,79.62
2023-01-08T04:57:13.631Z,79.82
2023-01-08T04:59:40.343Z,79.80
2023-01-08T05:02:07.315Z,79.62
2023-01-08T05:04:34.268Z,79.67
2023-01-08T05:07:01.017Z,79.59
2023-01-08T05:09:27.739Z,79.89
2023-01-08T05:11:54.512Z,79.53
2023-01-08T05:14:21.337Z,79.93
2023-01-08T05:16:48.075Z,79.58
2023-01-08T05:19:14.878Z,79.64
2023-01-08T05:21:41.805Z,79.60
2023-01-08T05:24:09.523Z,79.37
2023-01-08T05:26:36.372Z,79.42
2023-01-08T05:29:03.306Z,79.56
2023-01-08T05:31:30.173Z,79.47
2023-01-08T05:33:59.049Z,79.93
2023-01-08T05:36:25.869Z,79.70
2023-01-08T05:38:52.587Z,79.81
2023-01-08T05:41:19.342Z,79.82
2023-01-08T05:43:46.084Z,79.96
2023-01-08T05:46:12.902Z,79.74
2023-01-08T05:48:39.764Z,79.97
2023-01-08T05:51:06.440Z,79.92
2023-01-08T05:53:33.308Z,79.77
2023-01-08T05:56:09.094Z,79.86
2023-01-08T05:58:36.467Z,80.09
2023-01-08T06:01:06.627Z,80.06
2023-01-08T06:03:33.570Z,80.08
2023-01-08T06:06:02.509Z,80.56
2023-01-08T06:08:30.468Z,80.47
2023-01-08T06:11:05.796Z,80.46
2023-01-08T06:13:33.482Z,80.67
2023-01-08T06:16:01.068Z,80.63
2023-01-08T06:18:28.839Z,80.78
2023-01-08T06:20:55.641Z,80.76
2023-01-08T06:23:22.396Z,80.75
2023-01-08T06:25:54.005Z,80.54
2023-01-08T06:28:21.080Z,80.45
2023-01-08T06:30:47.901Z,80.50
2023-01-08T06:33:15.143Z,80.58
2023-01-08T06:35:42.942Z,80.50
2023-01-08T06:38:09.743Z,80.44
2023-01-08T06:40:36.694Z,80.59
2023-01-08T06:43:05.569Z,80.75
2023-01-08T06:45:33.351Z,80.57
2023-01-08T06:48:07.602Z,80.48
2023-01-08T06:50:35.160Z,80.36
2023-01-08T06:53:01.903Z,80.43
2023-01-08T06:55:28.622Z,80.52
2023-01-08T06:57:56.187Z,80.55
2023-01-08T07:00:23.947Z,80.47
2023-01-08T07:02:54.560Z,80.58
2023-01-08T07:05:22.275Z,80.63
2023-01-08T07:07:49.256Z,80.31
2023-01-08T07:10:17.445Z,80.69
2023-01-08T07:12:45.285Z,80.65
2023-01-08T07:15:12.216Z,80.67
2023-01-08T07:17:39.030Z,80.64
2023-01-08T07:20:06.579Z,80.94
2023-01-08T07:22:33.364Z,80.82
2023-01-08T07:25:00.136Z,80.75
2023-01-08T07:27:26.919Z,81.18
2023-01-08T07:29:56.025Z,81.09
2023-01-08T07:32:22.983Z,81.32
2023-01-08T07:34:49.913Z,81.16
2023-01-08T07:37:16.673Z,81.08
2023-01-08T07:39:43.444Z,81.44
2023-01-08T07:42:10.239Z,81.26
2023-01-08T07:44:37.004Z,81.57
2023-01-08T07:47:03.772Z,81.33
2023-01-08T07:49:30.530Z,81.39
2023-01-08T07:51:57.234Z,81.68
2023-01-08T07:54:23.930Z,81.50
2023-01-08T07:56:50.660Z,81.54
2023-01-08T07:59:17.429Z,81.75
2023-01-08T08:01:44.332Z,81.98
2023-01-08T08:04:11.158Z,82.06
2023-01-08T08:06:37.864Z,81.83
2023-01-08T08:09:04.886Z,82.19
2023-01-08T08:11:31.952Z,82.05
2023-01-08T08:13:58.735Z,82.04
2023-01-08T08:16:25.534Z,82.12
2023-01-08T08:18:52.362Z,82.29
2023-01-08T08:21:19.165Z,82.41
2023-01-08T08:23:45.938Z,82.24
2023-01-08T08:26:13.144Z,82.41
2023-01-08T08:28:39.869Z,82.38
2023-01-08T08:31:06.674Z,82.40
2023-01-08T08:33:33.463Z,82.60
2023-01-08T08:36:00.316Z,82.52
2023-01-08T08:38:27.209Z,82.83
2023-01-08T08:40:53.953Z,82.61
2023-01-08T08:43:20.689Z,82.71
2023-01-08T08:45:47.379Z,82.81
2023-01-08T08:48:14.103Z,82.88
2023-01-08T08:53:09.964Z,83.05
2023-01-08T08:55:36.735Z,82.96
2023-01-08T08:58:11.447Z,83.09
2023-01-08T09:00:39.609Z,83.13
2023-01-08T09:03:07.142Z,82.88
2023-01-08T09:05:37.308Z,83.04
2023-01-08T09:08:04.060Z,83.07
2023-01-08T09:10:30.799Z,82.94
2023-01-08T09:12:57.586Z,83.22
2023-01-08T09:15:24.287Z,83.09
2023-01-08T09:17:56.445Z,83.26
2023-01-08T09:20:24.470Z,83.27
2023-01-08T09:22:51.268Z,83.19
2023-01-08T09:25:18.176Z,82.98
2023-01-08T09:27:45.092Z,83.47
2023-01-08T09:30:12.699Z,83.03
2023-01-08T09:32:40.390Z,82.81
2023-01-08T09:35:07.429Z,82.72
2023-01-08T09:37:34.075Z,82.67
2023-01-08T09:40:02.944Z,82.69
2023-01-08T09:42:31.070Z,82.61
2023-01-08T09:45:00.329Z,82.81
2023-01-08T09:47:39.031Z,82.55
2023-01-08T09:50:13.199Z,82.79
2023-01-08T09:52:42.171Z,83.01
2023-01-08T09:55:14.938Z,82.67
2023-01-08T09:57:43.102Z,82.74
2023-01-08T10:00:15.729Z,82.76
2023-01-08T10:02:43.703Z,82.86
2023-01-08T10:05:18.323Z,82.81
2023-01-08T10:07:46.211Z,82.92
2023-01-08T10:10:22.438Z,82.98
2023-01-08T10:12:50.755Z,82.46
2023-01-08T10:15:19.465Z,82.28
2023-01-08T10:17:48.918Z,82.32
2023-01-08T10:20:21.711Z,82.31
2023-01-08T10:22:49.126Z,82.36
2023-01-08T10:25:24.595Z,82.41
2023-01-08T10:27:57.839Z,82.35
2023-01-08T10:30:31.777Z,82.16
2023-01-08T10:33:26.293Z,81.88
2023-01-08T10:35:58.023Z,81.67
2023-01-08T10:38:37.045Z,82.10
2023-01-08T10:41:06.953Z,82.00
2023-01-08T10:43:51.913Z,82.09
2023-01-08T10:46:26.997Z,81.56
2023-01-08T10:49:06.556Z,82.09
2023-01-08T10:51:33.772Z,81.45
2023-01-08T10:54:23.430Z,81.63
2023-01-08T10:56:50.116Z,81.56
2023-01-08T10:59:21.418Z,81.66
2023-01-08T11:01:50.080Z,81.19
2023-01-08T11:04:37.121Z,80.94
2023-01-08T11:07:07.481Z,80.99
2023-01-08T11:09:41.442Z,81.02
2023-01-08T11:12:35.860Z,80.89
2023-01-08T11:15:07.202Z,80.64
2023-01-08T11:17:34.851Z,80.35
2023-01-08T11:20:31.083Z,79.97
2023-01-08T11:23:13.260Z,80.26
2023-01-08T11:25:43.112Z,80.07
2023-01-08T11:28:14.631Z,79.78
2023-01-08T11:30:47.464Z,79.71
2023-01-08T11:33:21.546Z,79.55
2023-01-08T11:36:00.710Z,79.25
2023-01-08T11:38:27.385Z,79.37
2023-01-08T11:41:46.163Z,78.65
2023-01-08T11:44:21.933Z,79.02
2023-01-08T11:47:05.572Z,78.75
2023-01-08T11:49:58.026Z,78.94
2023-01-08T11:52:38.976Z,78.71
2023-01-08T11:55:29.971Z,78.45
2023-01-08T11:58:25.788Z,78.40
2023-01-08T12:01:15.596Z,78.41
2023-01-08T12:03:49.679Z,78.14
2023-01-08T12:06:53.363Z,78.30
2023-01-08T12:09:43.148Z,77.85
2023-01-08T12:12:43.977Z,77.77
2023-01-08T12:15:26.576Z,77.92
2023-01-08T12:17:53.199Z,77.75
2023-01-08T12:20:38.342Z,77.64
2023-01-08T12:23:37.311Z,77.40
2023-01-08T12:26:40.499Z,77.45
2023-01-08T12:29:33.188Z,77.22
2023-01-08T12:32:10.510Z,77.12
2023-01-08T12:35:00.446Z,77.36
2023-01-08T12:37:39.309Z,77.20
2023-01-08T12:40:18.268Z,77.13
2023-01-08T12:42:47.416Z,77.03
2023-01-08T12:45:28.499Z,77.19
2023-01-08T12:48:04.241Z,77.22
2023-01-08T12:50:48.136Z,76.78
2023-01-08T12:53:23.531Z,76.99
2023-01-08T12:56:11.526Z,77.11
2023-01-08T12:59:04.927Z,76.75
2023-01-08T13:01:51.167Z,77.08
2023-01-08T13:04:18.963Z,76.87
2023-01-08T13:07:03.309Z,76.82
2023-01-08T13:09:31.989Z,76.56
2023-01-08T13:12:00.743Z,76.92
2023-01-08T13:14:28.021Z,76.72
2023-01-08T13:17:07.954Z,76.26
2023-01-08T13:19:51.051Z,76.27
2023-01-08T13:22:28.490Z,76.34
2023-01-08T13:25:20.110Z,76.07
2023-01-08T13:27:47.662Z,76.32
2023-01-08T13:30:39.208Z,76.29
2023-01-08T13:33:27.550Z,76.00
2023-01-08T13:36:12.909Z,76.04
2023-01-08T13:38:40.507Z,76.18
2023-01-08T13:41:29.344Z,75.75
2023-01-08T13:44:16.312Z,75.87
2023-01-08T13:46:44.259Z,75.97
2023-01-08T13:49:26.273Z,75.82
2023-01-08T13:51:53.071Z,75.94
2023-01-08T13:54:25.419Z,75.75
2023-01-08T13:56:54.204Z,75.41
2023-01-08T13:59:29.942Z,75.72
2023-01-08T14:01:57.786Z,75.51
2023-01-08T14:04:24.876Z,75.51
2023-01-08T14:06:51.576Z,75.62
2023-01-08T14:09:25.995Z,75.18
2023-01-08T14:11:57.578Z,75.19
2023-01-08T14:14:24.839Z,75.20
2023-01-08T14:16:53.136Z,75.24
2023-01-08T14:19:22.541Z,75.36
2023-01-08T14:22:04.026Z,75.32
2023-01-08T14:24:30.771Z,75.38
2023-01-08T14:26:59.755Z,75.36
2023-01-08T14:29:30.033Z,75.40
2023-01-08T14:32:00.313Z,75.48
2023-01-08T14:34:29.976Z,75.52
2023-01-08T14:36:57.096Z,75.40
2023-01-08T14:39:24.075Z,75.12
2023-01-08T14:42:12.647Z,75.25
2023-01-08T14:44:42.446Z,75.17
2023-01-08T14:47:18.634Z,75.07
2023-01-08T14:49:53.169Z,75.19
2023-01-08T14:52:21.307Z,75.15
2023-01-08T14:54:53.346Z,75.24
2023-01-08T14:57:22.924Z,75.05
2023-01-08T15:00:02.279Z,75.08
2023-01-08T15:02:33.785Z,75.09
2023-01-08T15:05:03.842Z,75.19
2023-01-08T15:07:30.485Z,75.08
2023-01-08T15:09:59.458Z,75.24
2023-01-08T15:12:28.478Z,75.28
2023-01-08T15:14:57.731Z,75.30
2023-01-08T15:17:28.741Z,75.40
2023-01-08T15:19:57.506Z,75.29
2023-01-08T15:22:32.848Z,75.74
2023-01-08T15:25:02.808Z,75.77
2023-01-08T15:27:37.006Z,75.53
2023-01-08T15:30:05.716Z,75.75
2023-01-08T15:32:37.488Z,75.73
2023-01-08T15:35:16.846Z,75.77
2023-01-08T15:37:43.550Z,76.07
2023-01-08T15:40:12.468Z,75.93
2023-01-08T15:42:58.443Z,76.10
2023-01-08T15:45:29.800Z,76.12
2023-01-08T15:47:56.586Z,76.47
2023-01-08T15:50:25.250Z,76.22
2023-01-08T15:52:51.949Z,76.57
2023-01-08T15:55:23.113Z,76.78
2023-01-08T15:57:50.220Z,76.67
2023-01-08T16:00:18.891Z,77.00
2023-01-08T16:02:47.980Z,76.90
2023-01-08T16:05:17.620Z,77.20
2023-01-08T16:07:47.587Z,77.20
2023-01-08T16:10:15.922Z,77.36
2023-01-08T16:12:43.669Z,77.55
2023-01-08T16:15:12.495Z,77.75
2023-01-08T16:17:39.420Z,77.41
2023-01-08T16:20:08.051Z,77.81
2023-01-08T16:22:34.933Z,78.08
2023-01-08T16:25:01.981Z,78.16
2023-01-08T16:27:30.832Z,78.16
2023-01-08T16:29:58.445Z,78.46
2023-01-08T16:32:25.256Z,78.43
2023-01-08T16:34:52.045Z,78.56
2023-01-08T16:37:18.829Z,78.69
2023-01-08T16:39:45.569Z,78.91
2023-01-08T16:42:12.443Z,79.06
2023-01-08T16:44:39.197Z,79.13
2023-01-08T16:47:05.828Z,79.29
2023-01-08T16:49:33.647Z,79.30
2023-01-08T16:52:00.611Z,79.60
2023-01-08T16:54:27.892Z,79.72
2023-01-08T16:56:54.885Z,79.59
2023-01-08T16:59:24.012Z,79.99
2023-01-08T17:01:51.979Z,79.89
2023-01-08T17:04:20.447Z,79.82
2023-01-08T17:06:47.232Z,80.29
2023-01-08T17:09:15.102Z,80.03
2023-01-08T17:11:42.568Z,80.06
2023-01-08T17:14:09.933Z,80.51
2023-01-08T17:16:36.774Z,80.70
2023-01-08T17:19:03.846Z,80.79
2023-01-08T17:21:30.511Z,80.95
2023-01-08T17:23:57.144Z,80.81
2023-01-08T17:26:24.170Z,80.85
2023-01-08T17:28:54.586Z,81.17
2023-01-08T17:31:21.348Z,81.02
2023-01-08T17:33:50.407Z,81.18
2023-01-08T17:36:23.022Z,81.56
2023-01-08T17:38:50.794Z,81.41
2023-01-08T17:41:37.142Z,81.52
2023-01-08T17:44:06.947Z,81.58
2023-01-08T17:46:42.531Z,81.94
2023-01-08T17:49:11.396Z,82.01
2023-01-08T17:51:40.891Z,81.87
2023-01-08T17:54:17.217Z,82.19
2023-01-08T17:56:44.067Z,82.40
2023-01-08T17:59:15.845Z,82.09
2023-01-08T18:01:42.794Z,82.45
2023-01-08T18:04:09.511Z,82.35
2023-01-08T18:06:36.274Z,82.49
2023-01-08T18:09:03.609Z,82.64
2023-01-08T18:11:30.790Z,82.60
2023-01-08T18:13:59.505Z,82.98
2023-01-08T18:16:26.991Z,83.02
2023-01-08T18:18:55.543Z,83.14
2023-01-08T18:21:22.256Z,82.90
2023-01-08T18:23:48.928Z,83.19
2023-01-08T18:26:17.355Z,83.34
2023-01-08T18:28:44.394Z,83.73
2023-01-08T18:31:12.458Z,83.79
2023-01-08T18:33:41.988Z,83.89
2023-01-08T18:36:11.553Z,84.07
2023-01-08T18:38:43.326Z,83.95
2023-01-08T18:41:12.562Z,84.16
2023-01-08T18:43:39.195Z,84.03
2023-01-08T18:46:09.911Z,84.39
2023-01-08T18:48:37.809Z,84.47
2023-01-08T18:51:05.856Z,84.60
2023-01-08T18:53:33.829Z,84.39
2023-01-08T18:56:01.896Z,84.80
2023-01-08T18:58:29.597Z,85.21
2023-01-08T19:01:01.810Z,85.01
2023-01-08T19:03:28.543Z,85.32
2023-01-08T19:05:55.216Z,85.50
2023-01-08T19:08:21.850Z,85.72
2023-01-08T19:10:50.216Z,85.83
2023-01-08T19:13:17.028Z,85.79
2023-01-08T19:15:43.679Z,86.08
2023-01-08T19:18:10.499Z,86.08
2023-01-08T19:20:46.224Z,86.35
2023-01-08T19:23:13.845Z,86.34
2023-01-08T19:25:40.769Z,86.26
2023-01-08T19:28:07.431Z,86.42
2023-01-08T19:30:34.422Z,86.67
2023-01-08T19:33:01.590Z,86.87
2023-01-08T19:35:28.675Z,86.88
2023-01-08T19:37:55.358Z,86.61
2023-01-08T19:40:22.968Z,86.95
2023-01-08T19:43:08.393Z,87.00
2023-01-08T19:45:38.123Z,86.93
2023-01-08T19:48:05.557Z,87.38
2023-01-08T19:50:34.112Z,87.33
2023-01-08T19:53:00.800Z,87.37
2023-01-08T19:55:29.368Z,87.43
2023-01-08T19:57:56.011Z,87.66
2023-01-08T20:00:22.912Z,87.45
2023-01-08T20:02:51.515Z,87.71
2023-01-08T20:05:19.399Z,87.90
2023-01-08T20:07:46.350Z,88.23
2023-01-08T20:10:13.632Z,88.38
2023-01-08T20:12:40.440Z,88.17
2023-01-08T20:15:07.620Z,88.54
2023-01-08T20:17:34.415Z,88.16
2023-01-08T20:20:01.183Z,88.20
2023-01-08T20:22:29.117Z,88.65
2023-01-08T20:24:57.681Z,88.78
2023-01-08T20:27:25.178Z,88.71
2023-01-08T20:29:51.943Z,88.89
2023-01-08T20:32:21.017Z,88.71
2023-01-08T20:34:49.371Z,89.04
2023-01-08T20:37:16.025Z,88.98
2023-01-08T20:39:42.782Z,88.76
2023-01-08T20:42:10.073Z,89.24
2023-01-08T20:44:36.924Z,89.26
2023-01-08T20:47:03.756Z,89.34
2023-01-08T20:49:31.019Z,89.28
2023-01-08T20:52:00.120Z,89.31
2023-01-08T20:54:28.928Z,89.35
2023-01-08T20:56:57.316Z,89.41
2023-01-08T20:59:25.690Z,89.50
2023-01-08T21:01:52.852Z,89.81
2023-01-08T21:04:20.519Z,89.62
2023-01-08T21:06:47.384Z,89.51
2023-01-08T21:09:16.654Z,89.82
2023-01-08T21:11:43.715Z,89.99
2023-01-08T21:14:11.096Z,89.96
2023-01-08T21:16:40.453Z,90.12
2023-01-08T21:19:10.443Z,90.14
2023-01-08T21:21:40.141Z,90.37
2023-01-08T21:24:09.592Z,89.82
2023-01-08T21:26:37.939Z,90.31
2023-01-08T21:29:09.224Z,90.43
2023-01-08T21:31:37.209Z,90.18
2023-01-08T21:34:05.417Z,90.32
2023-01-08T21:36:32.628Z,90.53
2023-01-08T21:39:01.141Z,90.47
2023-01-08T21:41:47.968Z,90.76
2023-01-08T21:44:35.876Z,90.85
2023-01-08T21:47:04.831Z,90.88
2023-01-08T21:49:31.970Z,90.82
2023-01-08T21:52:17.878Z,90.80
2023-01-08T21:54:44.529Z,90.87
2023-01-08T21:57:11.645Z,90.92
2023-01-08T21:59:38.306Z,91.11
2023-01-08T22:02:06.236Z,91.28
2023-01-08T22:04:33.135Z,91.26
2023-01-08T22:06:59.776Z,91.21
2023-01-08T22:09:26.487Z,91.09
2023-01-08T22:11:54.996Z,91.45
2023-01-08T22:14:21.933Z,91.14
2023-01-08T22:16:48.630Z,91.45
2023-01-08T22:19:15.361Z,91.53
2023-01-08T22:21:42.070Z,91.64
2023-01-08T22:24:08.769Z,91.68
2023-01-08T22:26:35.722Z,91.58
2023-01-08T22:29:04.249Z,91.68
2023-01-08T22:31:30.959Z,91.68
2023-01-08T22:34:00.046Z,91.47
2023-01-08T22:36:26.889Z,91.56
2023-01-08T22:38:53.539Z,92.01
2023-01-08T22:41:23.030Z,91.97
2023-01-08T22:43:55.918Z,91.81
2023-01-08T22:46:23.248Z,91.77
2023-01-08T22:48:49.956Z,91.85
2023-01-08T22:51:16.939Z,92.08
2023-01-08T22:53:43.584Z,91.89
2023-01-08T22:56:13.381Z,91.84
2023-01-08T22:58:41.276Z,92.05
2023-01-08T23:01:23.452Z,92.09
2023-01-08T23:03:57.480Z,91.87
2023-01-08T23:06:26.627Z,92.22
2023-01-08T23:08:53.979Z,91.76
2023-01-08T23:11:22.421Z,91.90
2023-01-08T23:13:50.649Z,92.22
2023-01-08T23:16:19.899Z,91.85
2023-01-08T23:18:46.649Z,92.27
2023-01-08T23:21:17.434Z,92.27
2023-01-08T23:23:44.676Z,92.29
2023-01-08T23:26:18.955Z,92.03
2023-01-08T23:28:47.053Z,92.17
2023-01-08T23:31:17.098Z,92.32
2023-01-08T23:33:43.947Z,92.26
2023-01-08T23:36:10.975Z,92.38
2023-01-08T23:38:37.718Z,91.80
2023-01-08T23:41:07.243Z,92.40
2023-01-08T23:43:34.208Z,92.34
2023-01-08T23:46:05.492Z,92.55
2023-01-08T23:48:32.254Z,92.28
2023-01-08T23:50:59.246Z,92.13
2023-01-08T23:53:26.149Z,92.36
2023-01-08T23:55:52.968Z,92.08
2023-01-08T23:58:20.017Z,92.44
